Lostant, Illinois
Current Conditions -  °F | °C
As of 7:15 PM on Sunday 21 Dec 2014 (Local Time) from KVYS Reporting Station
Overcast Overcast  
Wind Chill: 28°   Ceiling: 3300
Heat Index: 37°   Visibility: 10mi
Dew Point: 32°   Wind: 14mph
Humidity: 83%   Direction: 140°SE
Pressure: 30.03"   Gusts: NA
Location:  41.14°N, 89.06°W
Report Text: KVYS 220115Z AUTO 14012KT 10SM OVC033 03/00 A3003 RMK AO2 T00251002
Loading
Personal Weather Stations






























Interactive Weather Map New forecast layout! Learn more

10-Day Weather Forecast

Advertisements
Track Severe Weather on mobile